createdAt,value
2022-09-26T00:04:47.546Z,0.10
2022-09-26T00:09:39.778Z,0.10
2022-09-26T00:14:31.661Z,0.13
2022-09-26T00:19:23.688Z,0.20
2022-09-26T00:24:15.832Z,0.10
2022-09-26T00:29:10.158Z,0.10
2022-09-26T00:34:02.764Z,0.10
2022-09-26T00:38:54.696Z,0.10
2022-09-26T00:43:49.747Z,0.10
2022-09-26T00:48:43.779Z,0.10
2022-09-26T00:53:42.801Z,0.10
2022-09-26T00:58:50.212Z,0.10
2022-09-26T01:03:44.255Z,0.00
2022-09-26T01:08:40.934Z,0.00
2022-09-26T01:13:35.747Z,0.10
2022-09-26T01:18:28.363Z,0.00
2022-09-26T01:24:03.307Z,0.00
2022-09-26T01:29:25.190Z,0.00
2022-09-26T01:34:17.482Z,0.03
2022-09-26T01:39:23.630Z,0.10
2022-09-26T01:44:30.242Z,0.00
2022-09-26T01:49:52.748Z,0.00
2022-09-26T01:54:53.051Z,0.00
2022-09-26T01:59:51.660Z,0.00
2022-09-26T02:04:46.228Z,0.00
2022-09-26T02:09:47.861Z,0.00
2022-09-26T02:14:42.827Z,0.00
2022-09-26T02:20:00.069Z,0.00
2022-09-26T02:24:53.510Z,0.10
2022-09-26T02:29:45.843Z,0.10
2022-09-26T02:34:37.518Z,0.00
2022-09-26T02:39:29.275Z,0.10
2022-09-26T02:44:33.010Z,0.00
2022-09-26T02:49:52.002Z,0.08
2022-09-26T02:55:17.152Z,0.10
2022-09-26T03:00:43.963Z,0.20
2022-09-26T03:05:41.453Z,0.20
2022-09-26T03:10:35.838Z,0.30
2022-09-26T03:15:29.838Z,0.40
2022-09-26T03:20:23.073Z,0.30
2022-09-26T03:25:18.741Z,0.40
2022-09-26T03:30:14.000Z,0.40
2022-09-26T03:35:05.804Z,1.15
2022-09-26T03:39:57.460Z,0.40
2022-09-26T03:44:49.069Z,0.57
2022-09-26T03:49:40.673Z,0.65
2022-09-26T03:54:32.212Z,0.60
2022-09-26T03:59:23.866Z,0.50
2022-09-26T04:04:16.526Z,0.70
2022-09-26T04:09:12.068Z,0.50
2022-09-26T04:14:09.828Z,0.52
2022-09-26T04:19:01.470Z,0.70
2022-09-26T04:23:53.707Z,0.63
2022-09-26T04:28:46.065Z,0.68
2022-09-26T04:33:39.916Z,1.23
2022-09-26T04:38:34.613Z,1.55
2022-09-26T04:43:26.356Z,1.40
2022-09-26T04:48:18.015Z,1.40
2022-09-26T04:53:10.032Z,1.30
2022-09-26T04:58:02.458Z,1.02
2022-09-26T05:02:54.139Z,0.98
2022-09-26T05:07:45.794Z,0.90
2022-09-26T05:12:42.032Z,0.70
2022-09-26T05:17:34.580Z,0.90
2022-09-26T05:22:30.402Z,1.67
2022-09-26T05:27:24.335Z,2.20
2022-09-26T05:32:19.179Z,1.70
2022-09-26T05:37:10.872Z,2.67
2022-09-26T05:42:05.896Z,2.30
2022-09-26T05:46:58.138Z,1.92
2022-09-26T05:51:50.133Z,2.75
2022-09-26T05:56:41.770Z,3.35
2022-09-26T06:01:34.405Z,2.75
2022-09-26T06:06:26.469Z,2.53
2022-09-26T06:11:28.056Z,2.67
2022-09-26T06:16:21.587Z,2.85
2022-09-26T06:21:15.698Z,3.38
2022-09-26T06:26:09.698Z,2.17
2022-09-26T06:31:01.687Z,2.92
2022-09-26T06:36:08.626Z,2.17
2022-09-26T06:41:00.403Z,2.63
2022-09-26T06:45:53.398Z,3.30
2022-09-26T06:50:45.165Z,3.20
2022-09-26T06:55:37.120Z,2.85
2022-09-26T07:00:33.862Z,2.78
2022-09-26T07:05:26.039Z,2.85
2022-09-26T07:10:19.687Z,1.70
2022-09-26T07:15:13.926Z,2.63
2022-09-26T07:20:07.982Z,0.68
2022-09-26T07:24:59.636Z,1.20
2022-09-26T07:29:51.262Z,0.70
2022-09-26T07:34:43.989Z,1.27
2022-09-26T07:39:35.565Z,0.80
2022-09-26T07:49:57.810Z,0.70
2022-09-26T07:54:49.586Z,0.90
2022-09-26T07:59:41.618Z,0.95
2022-09-26T08:04:33.286Z,0.77
2022-09-26T08:09:25.290Z,1.13
2022-09-26T08:14:16.991Z,1.02
2022-09-26T08:19:09.179Z,0.80
2022-09-26T08:24:02.247Z,0.80
2022-09-26T08:28:54.833Z,0.75
2022-09-26T08:33:47.799Z,0.90
2022-09-26T08:38:39.686Z,0.80
2022-09-26T08:43:56.502Z,0.60
2022-09-26T08:48:54.124Z,0.90
2022-09-26T08:53:52.643Z,0.70
2022-09-26T08:58:52.124Z,0.70
2022-09-26T09:04:01.412Z,1.23
2022-09-26T09:08:56.385Z,1.00
2022-09-26T09:14:20.138Z,0.70
2022-09-26T09:19:27.936Z,0.85
2022-09-26T09:24:41.613Z,0.43
2022-09-26T09:29:56.809Z,0.50
2022-09-26T09:34:53.673Z,0.70
2022-09-26T09:39:49.150Z,0.50
2022-09-26T09:44:47.545Z,0.45
2022-09-26T09:49:39.229Z,0.50
2022-09-26T09:54:43.317Z,0.57
2022-09-26T10:00:02.259Z,0.40
2022-09-26T10:05:04.124Z,0.40
2022-09-26T10:09:56.115Z,0.60
2022-09-26T10:14:55.088Z,0.45
2022-09-26T10:19:47.610Z,0.57
2022-09-26T10:24:43.326Z,0.50
2022-09-26T10:29:35.829Z,0.40
2022-09-26T10:34:32.566Z,0.50
2022-09-26T10:39:47.506Z,0.45
2022-09-26T10:44:39.541Z,0.47
2022-09-26T10:49:43.305Z,0.40
2022-09-26T10:54:42.299Z,0.40
2022-09-26T10:59:39.988Z,0.40
2022-09-26T11:04:52.671Z,0.40
2022-09-26T11:09:47.042Z,0.20
2022-09-26T11:14:45.890Z,0.30
2022-09-26T11:19:58.700Z,0.50
2022-09-26T11:25:08.012Z,0.45
2022-09-26T11:30:10.530Z,0.40
2022-09-26T11:35:03.160Z,0.30
2022-09-26T11:40:13.878Z,0.50
2022-09-26T11:45:44.023Z,0.50
2022-09-26T11:51:10.447Z,0.50
2022-09-26T11:56:11.238Z,0.60
2022-09-26T12:01:17.158Z,0.40
2022-09-26T12:06:44.101Z,0.47
2022-09-26T12:12:03.255Z,0.40
2022-09-26T12:16:55.128Z,0.50
2022-09-26T12:22:21.244Z,0.40
2022-09-26T12:27:25.656Z,0.40
2022-09-26T12:32:23.000Z,0.30
2022-09-26T12:37:37.539Z,0.45
2022-09-26T12:42:34.969Z,0.32
2022-09-26T12:47:57.573Z,0.40
2022-09-26T12:53:04.428Z,0.50
2022-09-26T12:58:00.633Z,0.40
2022-09-26T13:02:55.885Z,0.47
2022-09-26T13:08:13.925Z,0.40
2022-09-26T13:13:48.604Z,0.60
2022-09-26T13:18:50.692Z,0.35
2022-09-26T13:23:51.785Z,0.40
2022-09-26T13:29:15.756Z,0.50
2022-09-26T13:34:13.244Z,0.40
2022-09-26T13:39:23.522Z,0.38
2022-09-26T13:44:33.840Z,0.30
2022-09-26T13:49:50.004Z,0.30
2022-09-26T13:55:10.742Z,0.50
2022-09-26T14:00:31.288Z,0.20
2022-09-26T14:05:23.105Z,0.30
2022-09-26T14:10:34.887Z,0.20
2022-09-26T14:15:51.195Z,0.75
2022-09-26T14:21:12.626Z,0.30
2022-09-26T14:26:12.781Z,0.13
2022-09-26T14:31:18.728Z,0.10
2022-09-26T14:36:18.190Z,0.20
2022-09-26T14:41:18.504Z,0.25
2022-09-26T14:46:18.898Z,0.20
2022-09-26T14:51:11.166Z,0.20
2022-09-26T14:56:18.321Z,0.40
2022-09-26T15:01:18.936Z,0.20
2022-09-26T15:06:13.527Z,0.15
2022-09-26T15:11:06.893Z,0.10
2022-09-26T15:16:08.028Z,0.20
2022-09-26T15:21:10.211Z,0.20
2022-09-26T15:26:02.821Z,0.10
2022-09-26T15:31:27.003Z,0.20
2022-09-26T15:36:19.042Z,0.20
2022-09-26T15:41:16.437Z,0.30
2022-09-26T15:46:23.293Z,0.30
2022-09-26T15:51:25.647Z,0.10
2022-09-26T15:56:25.090Z,0.52
2022-09-26T16:01:19.680Z,0.20
2022-09-26T16:06:24.009Z,0.10
2022-09-26T16:11:15.893Z,0.15
2022-09-26T16:16:14.575Z,0.20
2022-09-26T16:21:16.972Z,0.28
2022-09-26T16:26:21.748Z,0.20
2022-09-26T16:31:19.652Z,0.25
2022-09-26T16:46:43.548Z,0.25
2022-09-26T16:51:39.823Z,0.20
2022-09-26T16:56:34.114Z,0.10
2022-09-26T17:01:44.790Z,0.40
2022-09-26T17:06:37.383Z,0.30
2022-09-26T17:11:30.448Z,0.20
2022-09-26T17:16:22.395Z,0.25
2022-09-26T17:21:14.761Z,0.28
2022-09-26T17:26:07.074Z,0.47
2022-09-26T17:30:59.272Z,0.20
2022-09-26T17:35:51.035Z,0.30
2022-09-26T17:40:45.655Z,1.15
2022-09-26T17:45:45.217Z,0.60
2022-09-26T17:50:38.721Z,0.50
2022-09-26T17:55:31.321Z,0.20
2022-09-26T18:00:23.164Z,0.20
2022-09-26T18:05:36.760Z,0.22
2022-09-26T18:10:30.826Z,0.20
2022-09-26T18:15:22.695Z,0.30
2022-09-26T18:20:14.457Z,0.52
2022-09-26T18:25:11.825Z,0.32
2022-09-26T18:30:04.775Z,0.40
2022-09-26T18:34:56.498Z,0.50
2022-09-26T18:39:53.589Z,0.30
2022-09-26T18:44:46.497Z,0.22
2022-09-26T18:49:38.492Z,0.30
2022-09-26T18:54:31.878Z,0.30
2022-09-26T18:59:28.263Z,0.60
2022-09-26T19:04:22.937Z,0.70
2022-09-26T19:09:18.534Z,0.43
2022-09-26T19:14:16.117Z,0.38
2022-09-26T19:19:08.030Z,0.60
2022-09-26T19:24:22.752Z,0.60
2022-09-26T19:29:18.751Z,0.85
2022-09-26T19:34:15.480Z,0.80
2022-09-26T19:39:13.387Z,0.47
2022-09-26T19:44:05.701Z,0.40
2022-09-26T19:48:57.896Z,0.38
2022-09-26T19:53:49.625Z,0.30
2022-09-26T19:58:42.796Z,0.30
2022-09-26T20:03:39.998Z,0.40
2022-09-26T20:08:31.839Z,0.40
2022-09-26T20:13:23.709Z,0.40
2022-09-26T20:18:21.436Z,0.30
2022-09-26T20:23:21.123Z,0.40
2022-09-26T20:28:15.683Z,0.80
2022-09-26T20:33:08.955Z,0.20
2022-09-26T20:38:04.957Z,0.40
2022-09-26T20:43:03.778Z,0.32
2022-09-26T20:47:57.605Z,0.57
2022-09-26T20:52:49.696Z,0.82
2022-09-26T20:57:42.046Z,0.20
2022-09-26T21:02:39.224Z,0.30
2022-09-26T21:07:32.147Z,0.30
2022-09-26T21:12:24.737Z,0.32
2022-09-26T21:17:28.242Z,0.20
2022-09-26T21:22:25.513Z,0.30
2022-09-26T21:27:17.432Z,0.20
2022-09-26T21:32:16.967Z,0.30
2022-09-26T21:37:10.058Z,0.50
2022-09-26T21:42:04.398Z,0.30
2022-09-26T21:46:56.169Z,0.20
2022-09-26T21:51:51.411Z,0.20
2022-09-26T21:57:06.778Z,0.20
2022-09-26T22:01:58.493Z,0.30
2022-09-26T22:06:50.344Z,0.20
2022-09-26T22:11:42.025Z,0.30
2022-09-26T22:16:34.018Z,0.30
2022-09-26T22:21:26.153Z,0.10
2022-09-26T22:26:18.752Z,0.28
2022-09-26T22:31:11.480Z,0.10
2022-09-26T22:36:04.300Z,0.65
2022-09-26T22:41:00.449Z,0.20
2022-09-26T22:45:52.725Z,0.20
2022-09-26T22:50:45.445Z,0.20
2022-09-26T22:55:37.160Z,1.08
2022-09-26T23:00:28.825Z,0.22
2022-09-26T23:05:20.582Z,0.50
2022-09-26T23:10:13.340Z,0.50
2022-09-26T23:15:05.507Z,0.40
2022-09-26T23:19:57.146Z,0.30
2022-09-26T23:24:48.858Z,0.40
2022-09-26T23:29:41.390Z,0.25
2022-09-26T23:34:33.167Z,0.30
2022-09-26T23:39:24.811Z,0.20
2022-09-26T23:44:16.542Z,0.38
2022-09-26T23:49:08.272Z,0.25
2022-09-26T23:54:00.320Z,0.25
2022-09-26T23:58:52.041Z,0.30
